WetterOnline ( http://www.wetteronline.ch )

Wetter aktuell Kassel

Aktuelles Wetter: Warburg (237m)

6-stündlich | Neueste Meldungen
Ortszeit Temperatur Wetter
Mo, 21.01. 19:00 -5.0° C wolkenlos
Mo, 21.01. 13:00 -3.0° C fast wolkenlos
Mo, 21.01. 7:00 -10.4° C wolkenlos
Mo, 21.01. 1:00 -8.9° C wolkenlos
So, 20.01. 19:00 -4.8° C wolkenlos
So, 20.01. 13:00 -3.4° C wolkenlos
So, 20.01. 7:00 -9.9° C wolkenlos
So, 20.01. 1:00 -7.5° C fast wolkenlos
Ortszeit Temperatur Wetter
Mo, 21.01. 21:00 -5.7° C fast wolkenlos
Mo, 21.01. 20:50 -5.7° C fast wolkenlos
Mo, 21.01. 20:40 -5.8° C leicht bewölkt
Mo, 21.01. 20:30 -7.1° C leicht bewölkt
Mo, 21.01. 20:20 -7.1° C leicht bewölkt
Mo, 21.01. 20:10 -7.2° C wolkig
Mo, 21.01. 20:00 -5.2° C leicht bewölkt
Mo, 21.01. 19:30 -5.0° C wolkenlos
Mo, 21.01. 19:00 -5.0° C wolkenlos
Mo, 21.01. 18:30 -4.2° C wolkenlos
Mo, 21.01. 18:00 -3.6° C wolkenlos
Ortszeit Relative Feuchte Sichtweite
Mo, 21.01. 19:00 87% 5.0 km
Mo, 21.01. 13:00 74% 7 km
Mo, 21.01. 7:00 91% 5.0 km
Mo, 21.01. 1:00 95% 4.3 km
So, 20.01. 19:00 81% 11 km
So, 20.01. 13:00 70% 15 km
So, 20.01. 7:00 92% 10 km
So, 20.01. 1:00 93% 10 km
Ortszeit Relative Feuchte Sichtweite
Mo, 21.01. 21:00 87% 6 km
Mo, 21.01. 20:50 87% -
Mo, 21.01. 20:40 89% -
Mo, 21.01. 20:30 89% 3.5 km
Mo, 21.01. 20:20 89% -
Mo, 21.01. 20:10 85% -
Mo, 21.01. 20:00 85% 5.0 km
Mo, 21.01. 19:30 85% 6 km
Mo, 21.01. 19:00 87% 5.0 km
Mo, 21.01. 18:30 83% 6 km
Mo, 21.01. 18:00 80% 7 km
Ortszeit Niederschlagsmenge Niederschlagsart
Mo, 21.01. 19:00 0.0 l/m2 in 12 Std. -
Mo, 21.01. 13:00 0.0 l/m2 in 6 Std. -
Mo, 21.01. 7:00 0.0 l/m2 in 12 Std. -
Mo, 21.01. 1:00 0.0 l/m2 in 6 Std. -
So, 20.01. 19:00 0.0 l/m2 in 12 Std. -
So, 20.01. 13:00 0.0 l/m2 in 6 Std. -
So, 20.01. 7:00 0.0 l/m2 in 12 Std. -
So, 20.01. 1:00 0.0 l/m2 in 6 Std. -
Ortszeit Niederschlagsmenge Niederschlagsart
Mo, 21.01. 21:00 0.0 l/m2 in 1 Std. -
Mo, 21.01. 20:50 keine Meldung -
Mo, 21.01. 20:40 keine Meldung -
Mo, 21.01. 20:30 0.0 l/m2 in 1 Std. -
Mo, 21.01. 20:20 keine Meldung -
Mo, 21.01. 20:10 keine Meldung -
Mo, 21.01. 20:00 0.0 l/m2 in 1 Std. -
Mo, 21.01. 19:30 0.0 l/m2 in 1 Std. -
Mo, 21.01. 19:00 0.0 l/m2 in 1 Std. -
Mo, 21.01. 18:30 0.0 l/m2 in 1 Std. -
Mo, 21.01. 18:00 0.0 l/m2 in 1 Std. -
Ortszeit Stärke Spitze Richtung
km/h Bft. km/h Grad Sektor
Mo, 21.01. 19:00 2 1 15 290° W
Mo, 21.01. 13:00 7 2 18 210° SW
Mo, 21.01. 7:00 6 1 13 190° S
Mo, 21.01. 1:00 4 1 11 180° S
So, 20.01. 19:00 6 1 9 350° N
So, 20.01. 13:00 6 1 6 60° NO
So, 20.01. 7:00 4 1 7 340° N
So, 20.01. 1:00 2 1 11 60° NO
Ortszeit Stärke Spitze Richtung
km/h Bft. km/h Grad Sektor
Mo, 21.01. 21:00 7 2 11 210° SW
Mo, 21.01. 20:50 7 2 - 210° SW
Mo, 21.01. 20:40 6 1 - 200° S
Mo, 21.01. 20:30 6 1 9 280° W
Mo, 21.01. 20:20 6 1 - 280° W
Mo, 21.01. 20:10 6 1 - 260° W
Mo, 21.01. 20:00 7 2 11 180° S
Mo, 21.01. 19:30 7 2 11 180° S
Mo, 21.01. 19:00 2 1 11 290° W
Mo, 21.01. 18:30 7 2 11 180° S
Mo, 21.01. 18:00 7 2 13 190° S
Ortszeit Untergrenze Bedeckung Gattung
total tief tief mittel hoch
Mo, 21.01. 19:00 - 0/8 0/8 - - -
Mo, 21.01. 13:00 8700 m 1/8 0/8 - - -
Mo, 21.01. 7:00 - 0/8 0/8 - - -
Mo, 21.01. 1:00 - 0/8 0/8 - - -
So, 20.01. 19:00 - 0/8 0/8 - - -
So, 20.01. 13:00 - 0/8 0/8 - - -
So, 20.01. 7:00 - 0/8 0/8 - - -
So, 20.01. 1:00 7200 m 2/8 0/8 - - -
Ortszeit Bedeckungsgrad in Achtel und Wolkenuntergrenze
Mo, 21.01. 21:00 2(7800m)
Mo, 21.01. 20:50 2(7800m) 2(9000m)
Mo, 21.01. 20:40 3(7800m) 3(9000m)
Mo, 21.01. 20:30 2(7200m) 4(7800m) 5(9000m)
Mo, 21.01. 20:20 2(7200m) 4(7800m) 5(9000m)
Mo, 21.01. 20:10 2(7200m) 6(7800m) 7(9000m)
Mo, 21.01. 20:00 3(7500m) 5(8100m)
Mo, 21.01. 19:30 keine Wolken
Mo, 21.01. 19:00 keine Wolken
Mo, 21.01. 18:30 keine Wolken
Mo, 21.01. 18:00 keine Wolken
Ortszeit Luftdruck NN (hPa) Tendenz (hPa in 3 Std.)
Mo, 21.01. 19:00 1021 - 0,7
Mo, 21.01. 13:00 1023 - 1,3
Mo, 21.01. 7:00 1025 - 0,1
Mo, 21.01. 1:00 1025 + 1,2
So, 20.01. 19:00 1021 + 1,5
So, 20.01. 13:00 1019 + 0,7
So, 20.01. 7:00 1018 - 0,1
So, 20.01. 1:00 1018 - 0,1
Ortszeit Luftdruck NN (hPa) Tendenz (hPa in 3 Std.)
Mo, 21.01. 21:00 1021 - 0,5
Mo, 21.01. 20:50 1021 keine Meldung
Mo, 21.01. 20:40 1021 keine Meldung
Mo, 21.01. 20:30 1021 - 0,4
Mo, 21.01. 20:20 1021 keine Meldung
Mo, 21.01. 20:10 1021 keine Meldung
Mo, 21.01. 20:00 1021 - 0,8
Mo, 21.01. 19:30 1021 - 0,7
Mo, 21.01. 19:00 1021 - 0,7
Mo, 21.01. 18:30 1021 - 1,0
Mo, 21.01. 18:00 1021 - 1,2
Ortszeit Schneehöhe (cm)
Mo, 21.01. 19:00 0
Mo, 21.01. 13:00 0
Mo, 21.01. 7:00 0
Mo, 21.01. 1:00 0
So, 20.01. 19:00 0
So, 20.01. 13:00 0
So, 20.01. 7:00 0
So, 20.01. 1:00 0
Ortszeit Schneehöhe (cm)
Mo, 21.01. 21:00 0
Mo, 21.01. 20:50 0
Mo, 21.01. 20:40 0
Mo, 21.01. 20:30 0
Mo, 21.01. 20:20 0
Mo, 21.01. 20:10 0
Mo, 21.01. 20:00 0
Mo, 21.01. 19:30 0
Mo, 21.01. 19:00 0
Mo, 21.01. 18:30 0
Mo, 21.01. 18:00 0
Link zu dieser Seite / Seite empfehlen

Das Wetter in ...